createdAt,value
2022-11-15T00:01:28.669Z,75.15
2022-11-15T00:03:55.176Z,75.17
2022-11-15T00:06:21.826Z,74.91
2022-11-15T00:08:48.383Z,75.23
2022-11-15T00:11:15.011Z,74.23
2022-11-15T00:13:41.663Z,74.11
2022-11-15T00:16:09.894Z,74.30
2022-11-15T00:18:36.398Z,73.77
2022-11-15T00:21:09.122Z,73.61
2022-11-15T00:23:35.844Z,73.23
2022-11-15T00:26:02.779Z,73.66
2022-11-15T00:28:29.317Z,73.20
2022-11-15T00:31:02.036Z,72.98
2022-11-15T00:33:28.888Z,72.70
2022-11-15T00:36:05.477Z,73.86
2022-11-15T00:38:36.325Z,73.18
2022-11-15T00:41:09.045Z,72.87
2022-11-15T00:43:36.069Z,72.57
2022-11-15T00:46:03.323Z,72.71
2022-11-15T00:48:30.337Z,72.54
2022-11-15T00:50:56.873Z,72.74
2022-11-15T00:53:23.418Z,72.56
2022-11-15T00:55:49.938Z,73.76
2022-11-15T00:58:22.527Z,74.40
2022-11-15T01:00:50.283Z,75.20
2022-11-15T01:03:16.916Z,74.71
2022-11-15T01:05:43.564Z,73.48
2022-11-15T01:08:17.638Z,72.78
2022-11-15T01:25:19.627Z,77.30
2022-11-15T01:28:01.361Z,75.83
2022-11-15T01:30:28.169Z,74.94
2022-11-15T01:32:54.714Z,74.75
2022-11-15T01:35:21.839Z,74.42
2022-11-15T01:37:48.361Z,73.54
2022-11-15T01:40:15.277Z,72.96
2022-11-15T01:45:30.407Z,72.32
2022-11-15T01:47:57.034Z,71.93
2022-11-15T01:50:30.671Z,72.18
2022-11-15T01:56:42.203Z,71.57
2022-11-15T01:59:10.696Z,72.03
2022-11-15T02:01:37.891Z,71.92
2022-11-15T02:04:27.123Z,71.43
2022-11-15T02:06:54.280Z,71.34
2022-11-15T02:09:21.051Z,71.26
2022-11-15T02:12:02.688Z,70.95
2022-11-15T02:14:30.933Z,71.19
2022-11-15T02:19:42.371Z,71.65
2022-11-15T02:25:28.120Z,71.13
2022-11-15T02:28:14.368Z,72.79
2022-11-15T02:30:58.263Z,72.37
2022-11-15T02:33:50.215Z,72.75
2022-11-15T02:36:36.414Z,73.31
2022-11-15T02:39:41.314Z,73.13
2022-11-15T02:50:05.433Z,74.97
2022-11-15T02:56:00.272Z,73.55
2022-11-15T02:58:53.546Z,74.37
2022-11-15T03:01:40.859Z,74.62
2022-11-15T03:04:29.187Z,75.44
2022-11-15T03:07:08.533Z,75.90
2022-11-15T03:10:11.753Z,75.09
2022-11-15T03:28:43.446Z,75.13
2022-11-15T03:31:32.533Z,74.95
2022-11-15T03:34:01.169Z,76.37
2022-11-15T03:36:28.248Z,75.30
2022-11-15T03:39:00.838Z,75.68
2022-11-15T03:41:37.130Z,74.21
2022-11-15T03:44:31.527Z,74.81
2022-11-15T03:47:10.957Z,74.27
2022-11-15T03:49:44.057Z,76.68
2022-11-15T03:52:12.017Z,78.37
2022-11-15T03:54:49.183Z,79.36
2022-11-15T03:57:34.242Z,77.95
2022-11-15T04:00:00.870Z,77.88
2022-11-15T04:02:27.452Z,78.74
2022-11-15T04:04:53.981Z,78.72
2022-11-15T04:08:07.238Z,78.26
2022-11-15T04:10:52.764Z,78.04
2022-11-15T04:18:29.817Z,77.30
2022-11-15T04:21:14.914Z,76.42
2022-11-15T04:39:49.355Z,76.32
2022-11-15T04:48:07.394Z,76.47
2022-11-15T04:50:33.940Z,75.95
2022-11-15T04:53:00.634Z,77.10
2022-11-15T04:55:27.301Z,76.86
2022-11-15T04:58:01.139Z,75.73
2022-11-15T05:00:29.443Z,74.98
2022-11-15T05:03:15.717Z,74.88
2022-11-15T05:05:42.833Z,73.53
2022-11-15T05:08:09.378Z,76.12
2022-11-15T05:10:57.677Z,74.33
2022-11-15T05:13:24.234Z,73.58
2022-11-15T05:15:51.024Z,72.57
2022-11-15T05:18:23.283Z,72.56
2022-11-15T05:21:51.948Z,72.27
2022-11-15T05:24:56.411Z,72.83
2022-11-15T05:27:23.481Z,72.23
2022-11-15T05:37:55.590Z,73.38
2022-11-15T05:40:22.537Z,74.35
2022-11-15T05:42:49.311Z,73.88
2022-11-15T05:45:16.340Z,74.79
2022-11-15T05:47:43.577Z,75.79
2022-11-15T05:50:15.005Z,75.67
2022-11-15T05:52:42.100Z,75.23
2022-11-15T05:55:09.906Z,73.91
2022-11-15T05:57:36.897Z,72.81
2022-11-15T06:00:05.283Z,72.86
2022-11-15T06:02:32.100Z,75.11
2022-11-15T06:04:58.994Z,76.69
2022-11-15T06:07:25.787Z,78.01
2022-11-15T06:09:52.428Z,78.63
2022-11-15T06:12:18.960Z,75.96
2022-11-15T06:14:45.488Z,77.95
2022-11-15T06:17:12.027Z,78.15
2022-11-15T06:19:38.620Z,77.66
2022-11-15T06:22:05.359Z,78.36
2022-11-15T06:24:31.953Z,77.95
2022-11-15T06:26:58.695Z,78.53
2022-11-15T06:29:25.446Z,79.35
2022-11-15T06:31:51.998Z,79.00
2022-11-15T06:34:18.705Z,80.13
2022-11-15T06:39:33.538Z,76.85
2022-11-15T06:42:00.073Z,76.07
2022-11-15T06:44:26.597Z,76.09
2022-11-15T06:46:53.396Z,75.76
2022-11-15T06:49:19.954Z,75.76
2022-11-15T06:51:46.561Z,75.27
2022-11-15T06:54:13.169Z,75.71
2022-11-15T06:56:39.707Z,74.67
2022-11-15T06:59:06.363Z,75.33
2022-11-15T07:01:32.983Z,75.79
2022-11-15T07:06:41.578Z,76.28
2022-11-15T07:09:08.102Z,75.76
2022-11-15T07:11:34.663Z,75.69
2022-11-15T07:14:01.498Z,75.60
2022-11-15T07:16:28.064Z,75.95
2022-11-15T07:18:54.768Z,76.40
2022-11-15T07:21:26.248Z,75.83
2022-11-15T07:23:54.143Z,76.28
2022-11-15T07:26:21.804Z,74.39
2022-11-15T07:28:48.510Z,75.57
2022-11-15T07:33:56.517Z,76.21
2022-11-15T07:36:23.090Z,76.76
2022-11-15T07:44:00.146Z,75.30
2022-11-15T07:46:26.736Z,76.27
2022-11-15T07:48:53.288Z,75.06
2022-11-15T07:51:57.406Z,75.23
2022-11-15T07:54:37.215Z,77.22
2022-11-15T07:57:07.584Z,76.31
2022-11-15T07:59:35.706Z,76.97
2022-11-15T08:02:02.892Z,78.17
2022-11-15T08:04:29.540Z,80.34
2022-11-15T08:06:56.516Z,80.36
2022-11-15T08:09:23.100Z,80.63
2022-11-15T08:11:49.656Z,80.29
2022-11-15T08:14:16.186Z,78.31
2022-11-15T08:16:42.773Z,76.57
2022-11-15T08:19:09.272Z,77.37
2022-11-15T08:21:36.213Z,76.97
2022-11-15T08:24:02.731Z,77.87
2022-11-15T08:26:31.023Z,78.92
2022-11-15T08:28:57.819Z,78.29
2022-11-15T08:31:24.435Z,78.39
2022-11-15T08:33:51.070Z,77.59
2022-11-15T08:36:21.146Z,76.64
2022-11-15T08:38:49.815Z,77.79
2022-11-15T08:41:27.663Z,79.78
2022-11-15T08:43:54.228Z,80.81
2022-11-15T08:46:20.751Z,80.73
2022-11-15T08:48:47.379Z,81.92
2022-11-15T08:51:51.515Z,82.04
2022-11-15T08:54:38.207Z,81.77
2022-11-15T08:57:04.766Z,84.61
2022-11-15T08:59:31.855Z,83.00
2022-11-15T09:01:58.569Z,80.39
2022-11-15T09:04:25.676Z,81.69
2022-11-15T09:06:52.365Z,82.58
2022-11-15T09:09:18.904Z,80.80
2022-11-15T09:11:45.510Z,80.16
2022-11-15T09:14:13.576Z,78.74
2022-11-15T09:16:40.262Z,77.69
2022-11-15T09:19:11.646Z,77.69
2022-11-15T09:21:38.598Z,80.16
2022-11-15T09:24:08.116Z,80.48
2022-11-15T09:26:34.633Z,80.87
2022-11-15T09:29:02.564Z,77.94
2022-11-15T09:31:30.468Z,79.15
2022-11-15T09:33:57.017Z,80.40
2022-11-15T09:36:23.621Z,79.35
2022-11-15T09:41:44.094Z,76.75
2022-11-15T09:44:21.134Z,76.82
2022-11-15T09:47:00.006Z,76.04
2022-11-15T09:49:26.968Z,78.45
2022-11-15T09:55:22.419Z,75.53
2022-11-15T09:57:58.523Z,74.30
2022-11-15T10:00:47.204Z,73.29
2022-11-15T10:03:28.528Z,73.43
2022-11-15T10:05:59.067Z,73.18
2022-11-15T10:08:35.810Z,72.74
2022-11-15T10:13:57.296Z,72.19
2022-11-15T10:16:47.399Z,73.59
2022-11-15T10:19:22.979Z,73.44
2022-11-15T10:22:06.955Z,73.87
2022-11-15T10:24:42.932Z,74.54
2022-11-15T10:27:15.710Z,73.47
2022-11-15T10:29:45.579Z,72.71
2022-11-15T10:32:14.258Z,72.26
2022-11-15T10:34:41.276Z,70.98
2022-11-15T10:37:07.805Z,71.84
2022-11-15T10:39:34.833Z,71.47
2022-11-15T10:42:30.071Z,74.60
2022-11-15T10:44:56.600Z,72.14
2022-11-15T10:47:29.026Z,71.37
2022-11-15T10:50:32.644Z,71.19
2022-11-15T10:53:01.624Z,71.03
2022-11-15T10:55:32.059Z,70.21
2022-11-15T10:58:06.745Z,70.34
2022-11-15T11:00:37.869Z,70.12
2022-11-15T11:03:21.703Z,69.80
2022-11-15T11:05:48.243Z,69.49
2022-11-15T11:08:14.718Z,69.77
2022-11-15T11:10:58.591Z,70.37
2022-11-15T11:13:39.992Z,69.38
2022-11-15T11:16:06.448Z,70.07
2022-11-15T11:18:39.960Z,70.25
2022-11-15T11:21:14.341Z,70.82
2022-11-15T11:23:56.364Z,69.98
2022-11-15T11:26:32.900Z,69.75
2022-11-15T11:29:14.479Z,69.36
2022-11-15T11:31:57.042Z,72.56
2022-11-15T11:34:47.926Z,72.63
2022-11-15T11:37:36.631Z,73.27
2022-11-15T11:40:10.874Z,73.24
2022-11-15T11:42:43.472Z,72.53
2022-11-15T11:45:37.530Z,71.76
2022-11-15T11:48:14.795Z,72.92
2022-11-15T11:50:45.639Z,73.55
2022-11-15T11:53:12.238Z,74.26
2022-11-15T12:00:18.751Z,73.76
2022-11-15T12:02:57.197Z,72.88
2022-11-15T12:05:32.751Z,72.13
2022-11-15T12:08:21.338Z,72.44
2022-11-15T12:10:53.167Z,72.06
2022-11-15T12:13:25.484Z,72.44
2022-11-15T12:26:32.786Z,72.28
2022-11-15T12:29:25.382Z,72.98
2022-11-15T12:32:24.491Z,72.61
2022-11-15T12:35:11.217Z,73.86
2022-11-15T12:37:41.538Z,72.90
2022-11-15T12:40:13.862Z,74.79
2022-11-15T12:42:43.567Z,76.86
2022-11-15T12:45:37.863Z,79.68
2022-11-15T12:48:16.360Z,76.81
2022-11-15T12:50:52.601Z,76.80
2022-11-15T12:53:25.353Z,76.80
2022-11-15T12:56:07.349Z,75.59
2022-11-15T12:58:57.308Z,76.62
2022-11-15T13:01:38.834Z,76.80
2022-11-15T13:04:20.466Z,76.90
2022-11-15T13:06:49.814Z,76.23
2022-11-15T13:09:42.136Z,75.85
2022-11-15T13:12:35.298Z,76.21
2022-11-15T13:15:22.890Z,77.54
2022-11-15T13:17:56.794Z,76.57
2022-11-15T13:20:26.266Z,76.37
2022-11-15T13:23:03.263Z,76.81
2022-11-15T13:25:59.822Z,78.29
2022-11-15T13:28:29.553Z,76.74
2022-11-15T13:30:59.401Z,76.34
2022-11-15T13:33:35.997Z,76.39
2022-11-15T13:36:26.527Z,77.05
2022-11-15T13:39:06.371Z,77.63
2022-11-15T13:41:45.940Z,76.61
2022-11-15T13:44:30.840Z,78.41
2022-11-15T13:47:15.096Z,76.97
2022-11-15T13:49:42.463Z,80.40
2022-11-15T13:52:15.151Z,77.84
2022-11-15T13:54:47.200Z,77.02
2022-11-15T13:57:19.059Z,77.16
2022-11-15T13:59:49.602Z,77.08
2022-11-15T14:02:19.144Z,77.24
2022-11-15T14:05:14.226Z,76.92
2022-11-15T14:07:44.451Z,76.76
2022-11-15T14:10:38.520Z,76.57
2022-11-15T14:13:11.389Z,75.94
2022-11-15T14:15:39.687Z,75.84
2022-11-15T14:18:06.927Z,75.18
2022-11-15T14:20:36.923Z,75.76
2022-11-15T14:23:24.901Z,75.60
2022-11-15T14:25:59.304Z,75.17
2022-11-15T14:28:26.179Z,76.66
2022-11-15T14:30:54.977Z,77.16
2022-11-15T14:33:26.292Z,81.04
2022-11-15T14:35:53.879Z,78.35
2022-11-15T14:38:20.449Z,77.72
2022-11-15T14:40:47.531Z,77.60
2022-11-15T14:43:14.548Z,77.87
2022-11-15T14:45:41.975Z,76.00
2022-11-15T14:48:09.030Z,75.68
2022-11-15T14:50:36.400Z,75.05
2022-11-15T14:53:04.214Z,74.77
2022-11-15T14:55:36.080Z,74.84
2022-11-15T14:58:08.976Z,77.19
2022-11-15T15:00:40.346Z,76.39
2022-11-15T15:03:07.835Z,74.87
2022-11-15T15:05:38.319Z,74.90
2022-11-15T15:08:06.184Z,74.67
2022-11-15T15:10:41.371Z,75.31
2022-11-15T15:13:31.312Z,77.47
2022-11-15T15:15:57.862Z,74.78
2022-11-15T15:18:24.400Z,76.74
2022-11-15T15:20:58.342Z,75.15
2022-11-15T15:23:26.600Z,75.03
2022-11-15T15:25:53.799Z,75.60
2022-11-15T15:28:20.338Z,76.19
2022-11-15T15:30:47.181Z,76.41
2022-11-15T15:33:13.718Z,75.18
2022-11-15T15:35:40.581Z,76.48
2022-11-15T15:38:07.115Z,74.96
2022-11-15T15:40:34.286Z,74.49
2022-11-15T15:43:01.101Z,74.07
2022-11-15T15:45:28.593Z,73.96
2022-11-15T15:47:55.400Z,76.53
2022-11-15T15:50:30.726Z,79.23
2022-11-15T15:52:59.804Z,77.59
2022-11-15T15:55:27.231Z,76.46
2022-11-15T15:57:54.001Z,74.86
2022-11-15T16:00:22.159Z,74.62
2022-11-15T16:02:48.771Z,74.36
2022-11-15T16:07:50.771Z,75.17
2022-11-15T16:10:20.299Z,76.85
2022-11-15T16:12:48.116Z,76.77
2022-11-15T16:25:41.067Z,76.43
2022-11-15T16:28:23.935Z,75.59
2022-11-15T16:30:59.987Z,77.77
2022-11-15T16:33:26.539Z,76.85
2022-11-15T16:35:53.223Z,77.08
2022-11-15T16:41:18.987Z,77.14
2022-11-15T16:43:49.063Z,77.67
2022-11-15T16:46:24.518Z,76.92
2022-11-15T16:48:51.866Z,76.25
2022-11-15T16:51:18.456Z,75.54
2022-11-15T16:54:03.335Z,76.13
2022-11-15T16:56:54.722Z,75.91
2022-11-15T16:59:27.467Z,75.34
2022-11-15T17:01:54.054Z,75.09
2022-11-15T17:04:22.638Z,76.00
2022-11-15T17:06:49.416Z,76.40
2022-11-15T17:09:24.634Z,76.07
2022-11-15T17:11:51.885Z,76.31
2022-11-15T17:14:33.653Z,75.96
2022-11-15T17:17:00.728Z,76.67
2022-11-15T17:19:30.472Z,77.00
2022-11-15T17:21:56.977Z,77.33
2022-11-15T17:24:51.483Z,76.23
2022-11-15T17:27:33.411Z,77.29
2022-11-15T17:30:07.373Z,77.00
2022-11-15T17:32:37.387Z,76.91
2022-11-15T17:35:10.656Z,76.16
2022-11-15T17:37:41.807Z,76.07
2022-11-15T17:40:08.899Z,75.94
2022-11-15T17:42:35.498Z,75.54
2022-11-15T17:45:06.730Z,75.38
2022-11-15T17:47:36.754Z,75.26
2022-11-15T17:50:03.768Z,74.97
2022-11-15T17:52:30.316Z,74.85
2022-11-15T17:54:56.860Z,74.69
2022-11-15T17:57:23.419Z,74.80
2022-11-15T17:59:50.323Z,74.74
2022-11-15T18:02:16.887Z,74.65
2022-11-15T18:04:43.527Z,74.69
2022-11-15T18:07:12.127Z,74.64
2022-11-15T18:09:42.273Z,74.84
2022-11-15T18:12:10.139Z,75.44
2022-11-15T18:14:36.802Z,75.30
2022-11-15T18:17:03.380Z,74.79
2022-11-15T18:19:29.923Z,74.79
2022-11-15T18:21:56.640Z,74.92
2022-11-15T18:24:36.687Z,76.06
2022-11-15T18:27:04.971Z,75.45
2022-11-15T18:29:33.373Z,75.34
2022-11-15T18:32:00.266Z,75.62
2022-11-15T18:34:33.458Z,75.39
2022-11-15T18:37:01.376Z,75.71
2022-11-15T18:39:27.979Z,76.46
2022-11-15T18:41:54.592Z,75.66
2022-11-15T18:44:21.161Z,75.65
2022-11-15T18:46:47.796Z,76.25
2022-11-15T18:49:16.684Z,76.19
2022-11-15T18:51:43.862Z,75.85
2022-11-15T18:54:12.113Z,75.96
2022-11-15T18:56:39.397Z,76.11
2022-11-15T18:59:06.396Z,76.75
2022-11-15T19:01:35.382Z,77.70
2022-11-15T19:04:18.450Z,77.09
2022-11-15T19:06:47.909Z,76.11
2022-11-15T19:09:16.616Z,75.69
2022-11-15T19:11:44.995Z,75.58
2022-11-15T19:14:13.946Z,75.37
2022-11-15T19:16:52.552Z,75.51
2022-11-15T19:19:25.177Z,77.25
2022-11-15T19:21:52.612Z,76.82
2022-11-15T19:24:19.587Z,76.23
2022-11-15T19:26:46.511Z,75.82
2022-11-15T19:29:17.234Z,75.35
2022-11-15T19:31:44.406Z,75.67
2022-11-15T19:34:11.221Z,75.53
2022-11-15T19:36:40.444Z,77.57
2022-11-15T19:39:09.914Z,76.96
2022-11-15T19:41:40.867Z,76.21
2022-11-15T19:44:12.151Z,76.26
2022-11-15T19:46:39.668Z,75.86
2022-11-15T19:49:11.024Z,76.21
2022-11-15T19:51:39.040Z,76.21
2022-11-15T19:57:58.769Z,76.12
2022-11-15T20:00:25.377Z,78.08
2022-11-15T20:02:52.098Z,78.19
2022-11-15T20:05:18.726Z,76.79
2022-11-15T20:07:50.410Z,75.99
2022-11-15T20:10:20.693Z,76.20
2022-11-15T20:12:47.459Z,76.66
2022-11-15T20:15:14.089Z,77.13
2022-11-15T20:17:40.620Z,76.04
2022-11-15T20:20:07.813Z,75.35
2022-11-15T20:22:34.508Z,75.25
2022-11-15T20:25:01.049Z,75.26
2022-11-15T20:27:27.595Z,75.21
2022-11-15T20:30:04.867Z,75.74
2022-11-15T20:32:31.782Z,75.61
2022-11-15T20:34:58.335Z,74.89
2022-11-15T20:37:25.203Z,74.86
2022-11-15T20:40:19.232Z,74.44
2022-11-15T20:43:06.118Z,73.81
2022-11-15T20:45:32.867Z,74.05
2022-11-15T20:47:59.534Z,74.21
2022-11-15T20:50:42.061Z,75.84
2022-11-15T20:53:09.995Z,75.11
2022-11-15T20:55:44.659Z,75.56
2022-11-15T21:00:46.679Z,75.28
2022-11-15T21:03:14.547Z,74.80
2022-11-15T21:05:42.706Z,74.89
2022-11-15T21:12:14.698Z,77.01
2022-11-15T21:14:42.523Z,75.78
2022-11-15T21:17:10.681Z,75.65
2022-11-15T21:19:37.310Z,75.69
2022-11-15T21:22:05.313Z,74.88
2022-11-15T21:24:32.061Z,74.93
2022-11-15T21:29:54.134Z,74.79
2022-11-15T21:32:20.783Z,74.62
2022-11-15T21:34:47.332Z,75.74
2022-11-15T21:37:19.306Z,76.32
2022-11-15T21:43:17.449Z,77.56
2022-11-15T21:46:00.127Z,75.88
2022-11-15T21:48:28.048Z,75.61
2022-11-15T21:50:56.523Z,75.35
2022-11-15T21:53:23.101Z,75.37
2022-11-15T21:55:51.889Z,75.79
2022-11-15T21:58:19.177Z,75.18
2022-11-15T22:01:04.225Z,75.35
2022-11-15T22:03:31.113Z,76.02
2022-11-15T22:05:57.905Z,75.74
2022-11-15T22:08:45.134Z,76.23
2022-11-15T22:11:33.663Z,75.67
2022-11-15T22:14:00.608Z,74.79
2022-11-15T22:16:27.155Z,75.94
2022-11-15T22:18:55.044Z,77.54
2022-11-15T22:21:22.059Z,76.77
2022-11-15T22:23:48.833Z,78.28
2022-11-15T22:29:03.765Z,75.44
2022-11-15T22:31:30.445Z,77.71
2022-11-15T22:33:57.048Z,77.16
2022-11-15T22:36:26.226Z,76.05
2022-11-15T22:38:56.957Z,76.01
2022-11-15T22:41:45.414Z,77.06
2022-11-15T22:47:32.450Z,79.90
2022-11-15T22:49:59.074Z,80.68
2022-11-15T22:55:00.935Z,80.31
2022-11-15T22:57:27.589Z,83.05
2022-11-15T23:02:36.435Z,81.64
2022-11-15T23:05:03.841Z,79.85
2022-11-15T23:07:30.953Z,78.46
2022-11-15T23:10:17.562Z,78.03
2022-11-15T23:13:02.703Z,77.92
2022-11-15T23:18:21.711Z,77.90
2022-11-15T23:44:58.401Z,76.59
